sensor_id;sensor_type;location;lat;lon;timestamp;pressure;altitude;pressure_sealevel;temperature;humidity
70248;BME280;57641;51.416;5.506;2023-03-20T00:00:50;102113.81;;;13.99;56.80
70248;BME280;57641;51.416;5.506;2023-03-20T00:03:16;102113.69;;;14.01;56.96
70248;BME280;57641;51.416;5.506;2023-03-20T00:05:42;102113.78;;;14.09;56.98
70248;BME280;57641;51.416;5.506;2023-03-20T00:08:07;102110.28;;;13.99;56.73
70248;BME280;57641;51.416;5.506;2023-03-20T00:10:37;102121.72;;;13.91;57.16
70248;BME280;57641;51.416;5.506;2023-03-20T00:13:05;102122.03;;;13.78;57.63
70248;BME280;57641;51.416;5.506;2023-03-20T00:15:41;102111.56;;;13.94;57.20
70248;BME280;57641;51.416;5.506;2023-03-20T00:18:16;102112.41;;;13.95;57.14
70248;BME280;57641;51.416;5.506;2023-03-20T00:20:49;102114.38;;;13.93;56.21
70248;BME280;57641;51.416;5.506;2023-03-20T00:23:15;102115.94;;;13.86;56.62
70248;BME280;57641;51.416;5.506;2023-03-20T00:25:43;102123.13;;;13.85;56.78
70248;BME280;57641;51.416;5.506;2023-03-20T00:28:42;102119.47;;;13.86;56.64
70248;BME280;57641;51.416;5.506;2023-03-20T00:31:24;102112.75;;;13.73;57.05
70248;BME280;57641;51.416;5.506;2023-03-20T00:33:56;102103.84;;;13.72;56.67
70248;BME280;57641;51.416;5.506;2023-03-20T00:36:23;102100.59;;;13.78;56.82
70248;BME280;57641;51.416;5.506;2023-03-20T00:38:49;102083.38;;;13.81;56.93
70248;BME280;57641;51.416;5.506;2023-03-20T00:44:20;102084.66;;;13.77;56.89
70248;BME280;57641;51.416;5.506;2023-03-20T00:46:53;102082.69;;;13.79;56.83
70248;BME280;57641;51.416;5.506;2023-03-20T00:49:25;102073.50;;;13.81;56.24
70248;BME280;57641;51.416;5.506;2023-03-20T00:51:51;102067.44;;;13.79;56.38
70248;BME280;57641;51.416;5.506;2023-03-20T00:54:16;102062.75;;;13.81;56.50
70248;BME280;57641;51.416;5.506;2023-03-20T00:56:47;102068.00;;;13.83;56.23
70248;BME280;57641;51.416;5.506;2023-03-20T00:59:17;102046.13;;;13.78;56.68
70248;BME280;57641;51.416;5.506;2023-03-20T01:01:45;102063.47;;;13.83;56.34
70248;BME280;57641;51.416;5.506;2023-03-20T01:04:16;102082.09;;;13.75;56.35
70248;BME280;57641;51.416;5.506;2023-03-20T01:06:43;102084.22;;;13.72;56.22
70248;BME280;57641;51.416;5.506;2023-03-20T01:09:12;102092.56;;;13.69;56.75
70248;BME280;57641;51.416;5.506;2023-03-20T01:11:39;102100.06;;;13.56;57.04
70248;BME280;57641;51.416;5.506;2023-03-20T01:14:11;102101.44;;;13.60;56.54
70248;BME280;57641;51.416;5.506;2023-03-20T01:16:38;102103.16;;;13.51;56.79
70248;BME280;57641;51.416;5.506;2023-03-20T01:19:03;102112.31;;;13.48;57.05
70248;BME280;57641;51.416;5.506;2023-03-20T01:21:32;102115.84;;;13.49;57.32
70248;BME280;57641;51.416;5.506;2023-03-20T01:23:57;102113.31;;;13.47;57.31
70248;BME280;57641;51.416;5.506;2023-03-20T01:26:35;102106.13;;;13.48;57.09
70248;BME280;57641;51.416;5.506;2023-03-20T01:29:12;102087.50;;;13.46;56.56
70248;BME280;57641;51.416;5.506;2023-03-20T01:31:43;102085.50;;;13.48;56.95
70248;BME280;57641;51.416;5.506;2023-03-20T01:34:09;102097.81;;;13.41;56.62
70248;BME280;57641;51.416;5.506;2023-03-20T01:36:35;102099.91;;;13.38;56.63
70248;BME280;57641;51.416;5.506;2023-03-20T01:39:01;102109.09;;;13.35;56.60
70248;BME280;57641;51.416;5.506;2023-03-20T01:41:28;102101.19;;;13.34;56.86
70248;BME280;57641;51.416;5.506;2023-03-20T01:43:54;102101.47;;;13.31;56.68
70248;BME280;57641;51.416;5.506;2023-03-20T01:46:29;102096.81;;;13.33;56.50
70248;BME280;57641;51.416;5.506;2023-03-20T01:49:00;102099.66;;;13.31;56.83
70248;BME280;57641;51.416;5.506;2023-03-20T01:51:31;102099.06;;;13.28;56.87
70248;BME280;57641;51.416;5.506;2023-03-20T01:54:05;102095.69;;;13.26;57.19
70248;BME280;57641;51.416;5.506;2023-03-20T01:56:36;102096.25;;;13.29;56.28
70248;BME280;57641;51.416;5.506;2023-03-20T01:59:17;102091.44;;;13.33;56.22
70248;BME280;57641;51.416;5.506;2023-03-20T02:01:44;102094.00;;;13.25;56.41
70248;BME280;57641;51.416;5.506;2023-03-20T02:04:13;102085.41;;;13.21;56.55
70248;BME280;57641;51.416;5.506;2023-03-20T02:06:41;102083.97;;;13.17;55.90
70248;BME280;57641;51.416;5.506;2023-03-20T02:09:09;102087.38;;;13.19;56.29
70248;BME280;57641;51.416;5.506;2023-03-20T02:11:37;102093.00;;;13.16;56.08
70248;BME280;57641;51.416;5.506;2023-03-20T02:14:05;102087.66;;;13.16;56.43
70248;BME280;57641;51.416;5.506;2023-03-20T02:16:32;102078.06;;;13.14;56.09
70248;BME280;57641;51.416;5.506;2023-03-20T02:18:58;102091.44;;;13.14;55.74
70248;BME280;57641;51.416;5.506;2023-03-20T02:26:58;102103.06;;;12.84;57.10
70248;BME280;57641;51.416;5.506;2023-03-20T02:39:55;102115.38;;;12.56;57.58
70248;BME280;57641;51.416;5.506;2023-03-20T02:48:15;102105.34;;;12.48;57.86
70248;BME280;57641;51.416;5.506;2023-03-20T02:50:49;102095.91;;;12.54;58.35
70248;BME280;57641;51.416;5.506;2023-03-20T03:01:53;102089.84;;;12.42;57.36
70248;BME280;57641;51.416;5.506;2023-03-20T03:04:27;102082.50;;;12.44;58.21
70248;BME280;57641;51.416;5.506;2023-03-20T03:06:55;102083.69;;;12.51;57.58
70248;BME280;57641;51.416;5.506;2023-03-20T03:09:28;102083.38;;;12.54;57.39
70248;BME280;57641;51.416;5.506;2023-03-20T03:11:59;102081.56;;;12.55;57.75
70248;BME280;57641;51.416;5.506;2023-03-20T03:14:38;102078.19;;;12.53;57.38
70248;BME280;57641;51.416;5.506;2023-03-20T03:17:06;102072.00;;;12.52;57.79
70248;BME280;57641;51.416;5.506;2023-03-20T03:19:36;102078.03;;;12.54;57.25
70248;BME280;57641;51.416;5.506;2023-03-20T03:22:03;102076.50;;;12.52;57.18
70248;BME280;57641;51.416;5.506;2023-03-20T03:24:31;102067.34;;;12.54;57.15
70248;BME280;57641;51.416;5.506;2023-03-20T03:26:59;102064.81;;;12.53;57.34
70248;BME280;57641;51.416;5.506;2023-03-20T03:29:30;102049.88;;;12.50;57.23
70248;BME280;57641;51.416;5.506;2023-03-20T03:32:00;102046.34;;;12.50;57.42
70248;BME280;57641;51.416;5.506;2023-03-20T03:34:27;102056.31;;;12.38;56.70
70248;BME280;57641;51.416;5.506;2023-03-20T03:37:06;102047.19;;;12.41;57.00
70248;BME280;57641;51.416;5.506;2023-03-20T03:42:38;102058.25;;;12.26;57.63
70248;BME280;57641;51.416;5.506;2023-03-20T03:45:20;102054.41;;;12.19;57.91
70248;BME280;57641;51.416;5.506;2023-03-20T03:48:02;102053.38;;;12.11;58.22
70248;BME280;57641;51.416;5.506;2023-03-20T03:50:35;102052.81;;;12.07;58.31
70248;BME280;57641;51.416;5.506;2023-03-20T03:53:08;102040.72;;;12.13;58.43
70248;BME280;57641;51.416;5.506;2023-03-20T03:55:40;102040.19;;;12.19;58.26
70248;BME280;57641;51.416;5.506;2023-03-20T03:58:16;102045.00;;;12.25;58.22
70248;BME280;57641;51.416;5.506;2023-03-20T04:00:46;102043.03;;;12.27;58.44
70248;BME280;57641;51.416;5.506;2023-03-20T04:03:15;102031.53;;;12.26;57.93
70248;BME280;57641;51.416;5.506;2023-03-20T04:05:43;102025.13;;;12.18;57.59
70248;BME280;57641;51.416;5.506;2023-03-20T04:08:10;102031.19;;;12.20;57.83
70248;BME280;57641;51.416;5.506;2023-03-20T04:10:36;102035.25;;;12.14;57.89
70248;BME280;57641;51.416;5.506;2023-03-20T04:13:02;102038.78;;;12.15;57.80
70248;BME280;57641;51.416;5.506;2023-03-20T04:15:27;102037.50;;;12.09;58.01
70248;BME280;57641;51.416;5.506;2023-03-20T04:17:53;102034.78;;;12.00;58.35
70248;BME280;57641;51.416;5.506;2023-03-20T04:20:18;102037.91;;;12.05;57.90
70248;BME280;57641;51.416;5.506;2023-03-20T04:22:44;102030.22;;;11.91;58.29
70248;BME280;57641;51.416;5.506;2023-03-20T04:25:17;102032.03;;;11.90;58.67
70248;BME280;57641;51.416;5.506;2023-03-20T04:27:43;102040.84;;;11.81;58.79
70248;BME280;57641;51.416;5.506;2023-03-20T04:30:10;102035.91;;;11.76;58.67
70248;BME280;57641;51.416;5.506;2023-03-20T04:32:36;102026.94;;;11.77;58.97
70248;BME280;57641;51.416;5.506;2023-03-20T04:35:01;102025.78;;;11.80;58.37
70248;BME280;57641;51.416;5.506;2023-03-20T04:37:27;102031.13;;;11.80;58.35
70248;BME280;57641;51.416;5.506;2023-03-20T04:39:52;102022.88;;;11.83;58.88
70248;BME280;57641;51.416;5.506;2023-03-20T04:42:17;102029.59;;;11.77;58.16
70248;BME280;57641;51.416;5.506;2023-03-20T04:44:43;102031.03;;;11.81;58.58
70248;BME280;57641;51.416;5.506;2023-03-20T04:47:12;102027.78;;;11.78;58.16
70248;BME280;57641;51.416;5.506;2023-03-20T04:49:37;102022.47;;;11.88;58.13
70248;BME280;57641;51.416;5.506;2023-03-20T04:52:03;102017.38;;;11.84;58.10
70248;BME280;57641;51.416;5.506;2023-03-20T04:54:28;102018.78;;;11.79;58.59
70248;BME280;57641;51.416;5.506;2023-03-20T04:56:54;102016.63;;;11.73;57.93
70248;BME280;57641;51.416;5.506;2023-03-20T04:59:20;102005.56;;;11.77;58.13
70248;BME280;57641;51.416;5.506;2023-03-20T05:01:46;102010.78;;;11.79;58.60
70248;BME280;57641;51.416;5.506;2023-03-20T05:04:11;102010.03;;;11.77;58.38
70248;BME280;57641;51.416;5.506;2023-03-20T05:06:37;102008.50;;;11.63;58.20
70248;BME280;57641;51.416;5.506;2023-03-20T05:09:02;102006.41;;;11.57;58.88
70248;BME280;57641;51.416;5.506;2023-03-20T05:11:28;102014.66;;;11.54;59.34
70248;BME280;57641;51.416;5.506;2023-03-20T05:13:54;102004.25;;;11.51;59.64
70248;BME280;57641;51.416;5.506;2023-03-20T05:16:20;102012.66;;;11.47;59.55
70248;BME280;57641;51.416;5.506;2023-03-20T05:18:46;102020.22;;;11.41;59.85
70248;BME280;57641;51.416;5.506;2023-03-20T05:21:12;102017.31;;;11.54;59.18
70248;BME280;57641;51.416;5.506;2023-03-20T05:23:37;102011.56;;;11.59;59.19
70248;BME280;57641;51.416;5.506;2023-03-20T05:26:03;102014.66;;;11.54;58.54
70248;BME280;57641;51.416;5.506;2023-03-20T05:28:29;102004.25;;;11.51;58.49
70248;BME280;57641;51.416;5.506;2023-03-20T05:30:54;102003.44;;;11.60;58.83
70248;BME280;57641;51.416;5.506;2023-03-20T05:33:20;102004.94;;;11.53;59.86
70248;BME280;57641;51.416;5.506;2023-03-20T05:35:46;102001.75;;;11.59;59.62
70248;BME280;57641;51.416;5.506;2023-03-20T05:38:12;102002.72;;;11.58;58.79
70248;BME280;57641;51.416;5.506;2023-03-20T05:40:37;102001.91;;;11.58;58.81
70248;BME280;57641;51.416;5.506;2023-03-20T05:43:03;102013.03;;;11.63;59.46
70248;BME280;57641;51.416;5.506;2023-03-20T05:45:30;102018.44;;;11.72;59.17
70248;BME280;57641;51.416;5.506;2023-03-20T05:47:55;102010.94;;;11.66;58.72
70248;BME280;57641;51.416;5.506;2023-03-20T05:50:21;102004.13;;;11.73;59.07
70248;BME280;57641;51.416;5.506;2023-03-20T05:52:47;102013.59;;;11.66;59.28
70248;BME280;57641;51.416;5.506;2023-03-20T05:55:13;102009.19;;;11.76;58.26
70248;BME280;57641;51.416;5.506;2023-03-20T05:57:40;102023.13;;;11.80;58.47
70248;BME280;57641;51.416;5.506;2023-03-20T06:00:06;102015.56;;;11.85;58.23
70248;BME280;57641;51.416;5.506;2023-03-20T06:02:33;102014.97;;;11.81;58.74
70248;BME280;57641;51.416;5.506;2023-03-20T06:04:58;102017.09;;;11.78;58.75
70248;BME280;57641;51.416;5.506;2023-03-20T06:07:24;102025.28;;;11.86;58.28
70248;BME280;57641;51.416;5.506;2023-03-20T06:09:50;102043.66;;;11.79;58.17
70248;BME280;57641;51.416;5.506;2023-03-20T06:12:16;102038.91;;;11.83;58.41
70248;BME280;57641;51.416;5.506;2023-03-20T06:14:42;102042.28;;;11.85;58.67
70248;BME280;57641;51.416;5.506;2023-03-20T06:17:08;102045.63;;;11.77;58.63
70248;BME280;57641;51.416;5.506;2023-03-20T06:19:34;102047.63;;;11.85;58.38
70248;BME280;57641;51.416;5.506;2023-03-20T06:21:59;102043.94;;;11.76;57.85
70248;BME280;57641;51.416;5.506;2023-03-20T06:24:25;102040.72;;;11.82;58.85
70248;BME280;57641;51.416;5.506;2023-03-20T06:26:51;102050.25;;;11.75;58.94
70248;BME280;57641;51.416;5.506;2023-03-20T06:29:16;102050.50;;;11.72;58.69
70248;BME280;57641;51.416;5.506;2023-03-20T06:31:43;102050.88;;;11.68;58.17
70248;BME280;57641;51.416;5.506;2023-03-20T06:34:09;102045.38;;;11.69;58.81
70248;BME280;57641;51.416;5.506;2023-03-20T06:36:34;102045.16;;;11.72;58.66
70248;BME280;57641;51.416;5.506;2023-03-20T06:39:01;102050.69;;;11.80;58.87
70248;BME280;57641;51.416;5.506;2023-03-20T06:41:27;102052.72;;;11.88;58.72
70248;BME280;57641;51.416;5.506;2023-03-20T06:43:53;102053.53;;;11.79;59.04
70248;BME280;57641;51.416;5.506;2023-03-20T06:46:20;102056.25;;;11.89;58.76
70248;BME280;57641;51.416;5.506;2023-03-20T06:48:46;102056.25;;;11.89;57.98
70248;BME280;57641;51.416;5.506;2023-03-20T06:51:12;102063.53;;;11.87;58.44
70248;BME280;57641;51.416;5.506;2023-03-20T06:53:38;102063.00;;;11.93;57.83
70248;BME280;57641;51.416;5.506;2023-03-20T06:56:07;102072.31;;;11.98;57.78
70248;BME280;57641;51.416;5.506;2023-03-20T06:58:33;102078.00;;;12.05;58.07
70248;BME280;57641;51.416;5.506;2023-03-20T07:01:01;102087.97;;;12.03;57.70
70248;BME280;57641;51.416;5.506;2023-03-20T07:03:32;102095.44;;;12.09;57.47
70248;BME280;57641;51.416;5.506;2023-03-20T07:05:58;102098.13;;;12.09;57.58
70248;BME280;57641;51.416;5.506;2023-03-20T07:08:25;102097.19;;;12.19;57.36
70248;BME280;57641;51.416;5.506;2023-03-20T07:10:50;102095.69;;;12.26;57.28
70248;BME280;57641;51.416;5.506;2023-03-20T07:13:16;102099.47;;;12.24;57.00
70248;BME280;57641;51.416;5.506;2023-03-20T07:15:42;102096.34;;;12.19;56.59
70248;BME280;57641;51.416;5.506;2023-03-20T07:18:07;102091.00;;;12.19;56.60
70248;BME280;57641;51.416;5.506;2023-03-20T07:20:33;102088.59;;;12.16;56.05
70248;BME280;57641;51.416;5.506;2023-03-20T07:22:58;102097.19;;;12.19;56.61
70248;BME280;57641;51.416;5.506;2023-03-20T07:25:24;102100.53;;;12.12;56.92
70248;BME280;57641;51.416;5.506;2023-03-20T07:27:52;102110.06;;;12.05;57.24
70248;BME280;57641;51.416;5.506;2023-03-20T07:30:19;102107.69;;;12.11;56.78
70248;BME280;57641;51.416;5.506;2023-03-20T07:32:45;102099.44;;;12.14;56.48
70248;BME280;57641;51.416;5.506;2023-03-20T07:35:11;102108.25;;;12.05;57.00
70248;BME280;57641;51.416;5.506;2023-03-20T07:37:37;102108.81;;;12.09;56.68
70248;BME280;57641;51.416;5.506;2023-03-20T07:40:04;102114.09;;;12.20;56.51
70248;BME280;57641;51.416;5.506;2023-03-20T07:42:33;102110.44;;;12.21;56.68
70248;BME280;57641;51.416;5.506;2023-03-20T07:44:58;102111.13;;;12.23;57.18
70248;BME280;57641;51.416;5.506;2023-03-20T07:47:24;102117.28;;;12.14;56.64
70248;BME280;57641;51.416;5.506;2023-03-20T07:49:49;102103.75;;;12.36;56.41
70248;BME280;57641;51.416;5.506;2023-03-20T07:52:15;102106.44;;;12.36;56.22
70248;BME280;57641;51.416;5.506;2023-03-20T07:54:44;102104.63;;;12.46;55.73
70248;BME280;57641;51.416;5.506;2023-03-20T07:57:10;102106.16;;;12.39;55.71
70248;BME280;57641;51.416;5.506;2023-03-20T07:59:35;102109.94;;;12.37;55.80
70248;BME280;57641;51.416;5.506;2023-03-20T08:02:01;102117.38;;;12.33;55.42
70248;BME280;57641;51.416;5.506;2023-03-20T08:04:27;102108.78;;;12.30;55.47
70248;BME280;57641;51.416;5.506;2023-03-20T08:07:12;102110.69;;;12.18;55.47
70248;BME280;57641;51.416;5.506;2023-03-20T08:09:37;102114.50;;;12.15;55.86
70248;BME280;57641;51.416;5.506;2023-03-20T08:12:04;102110.03;;;12.25;55.97
70248;BME280;57641;51.416;5.506;2023-03-20T08:14:29;102110.03;;;12.25;55.74
70248;BME280;57641;51.416;5.506;2023-03-20T08:16:55;102118.75;;;12.27;55.55
70248;BME280;57641;51.416;5.506;2023-03-20T08:19:20;102115.63;;;12.22;55.60
70248;BME280;57641;51.416;5.506;2023-03-20T08:21:46;102120.06;;;12.33;55.88
70248;BME280;57641;51.416;5.506;2023-03-20T08:24:13;102114.50;;;12.46;55.13
70248;BME280;57641;51.416;5.506;2023-03-20T08:26:38;102119.47;;;12.30;55.58
70248;BME280;57641;51.416;5.506;2023-03-20T08:29:04;102113.78;;;12.53;55.22
70248;BME280;57641;51.416;5.506;2023-03-20T08:31:29;102116.75;;;12.50;54.60
70248;BME280;57641;51.416;5.506;2023-03-20T08:33:56;102116.09;;;12.58;55.01
70248;BME280;57641;51.416;5.506;2023-03-20T08:36:22;102101.72;;;12.59;54.52
70248;BME280;57641;51.416;5.506;2023-03-20T08:38:48;102116.75;;;12.50;54.81
70248;BME280;57641;51.416;5.506;2023-03-20T08:41:15;102109.94;;;12.37;55.20
70248;BME280;57641;51.416;5.506;2023-03-20T08:43:41;102103.78;;;12.46;54.91
70248;BME280;57641;51.416;5.506;2023-03-20T08:46:10;102113.50;;;12.47;54.59
70248;BME280;57641;51.416;5.506;2023-03-20T08:48:35;102111.38;;;12.41;55.14
70248;BME280;57641;51.416;5.506;2023-03-20T08:51:02;102109.44;;;12.52;54.87
70248;BME280;57641;51.416;5.506;2023-03-20T08:53:28;102113.91;;;12.42;54.82
70248;BME280;57641;51.416;5.506;2023-03-20T08:55:53;102118.47;;;12.61;53.96
70248;BME280;57641;51.416;5.506;2023-03-20T08:58:20;102106.78;;;12.52;54.66
70248;BME280;57641;51.416;5.506;2023-03-20T09:00:45;102114.53;;;12.55;54.51
70248;BME280;57641;51.416;5.506;2023-03-20T09:03:17;102111.88;;;12.65;54.63
70248;BME280;57641;51.416;5.506;2023-03-20T09:05:46;102108.22;;;12.26;54.62
70248;BME280;57641;51.416;5.506;2023-03-20T09:08:14;102112.97;;;12.22;55.28
70248;BME280;57641;51.416;5.506;2023-03-20T09:10:40;102105.19;;;12.50;54.87
70248;BME280;57641;51.416;5.506;2023-03-20T09:13:06;102112.47;;;12.68;53.59
70248;BME280;57641;51.416;5.506;2023-03-20T09:15:33;102111.28;;;12.52;54.14
70248;BME280;57641;51.416;5.506;2023-03-20T09:17:59;102109.72;;;12.49;54.38
70248;BME280;57641;51.416;5.506;2023-03-20T09:20:25;102120.72;;;12.56;54.11
70248;BME280;57641;51.416;5.506;2023-03-20T09:22:50;102123.84;;;12.31;54.65
70248;BME280;57641;51.416;5.506;2023-03-20T09:25:15;102120.44;;;12.28;53.97
70248;BME280;57641;51.416;5.506;2023-03-20T09:27:44;102125.19;;;12.15;54.54
70248;BME280;57641;51.416;5.506;2023-03-20T09:30:11;102129.19;;;12.31;55.21
70248;BME280;57641;51.416;5.506;2023-03-20T09:32:37;102133.16;;;12.36;56.62
70248;BME280;57641;51.416;5.506;2023-03-20T09:35:05;102141.88;;;12.38;56.94
70248;BME280;57641;51.416;5.506;2023-03-20T09:37:30;102132.81;;;12.50;57.64
70248;BME280;57641;51.416;5.506;2023-03-20T09:39:56;102134.81;;;12.58;58.23
70248;BME280;57641;51.416;5.506;2023-03-20T09:45:49;102143.91;;;12.46;59.24
70248;BME280;57641;51.416;5.506;2023-03-20T09:51:35;102137.19;;;12.21;59.78
70248;BME280;57641;51.416;5.506;2023-03-20T09:54:10;102135.91;;;11.95;60.64
70248;BME280;57641;51.416;5.506;2023-03-20T09:56:39;102136.44;;;12.19;60.89
70248;BME280;57641;51.416;5.506;2023-03-20T09:59:05;102133.25;;;12.25;60.64
70248;BME280;57641;51.416;5.506;2023-03-20T10:01:42;102125.69;;;12.30;60.93
70248;BME280;57641;51.416;5.506;2023-03-20T10:04:13;102133.34;;;12.44;61.25
70248;BME280;57641;51.416;5.506;2023-03-20T10:06:39;102127.31;;;12.21;61.63
70248;BME280;57641;51.416;5.506;2023-03-20T10:09:25;102123.50;;;12.45;61.24
70248;BME280;57641;51.416;5.506;2023-03-20T10:12:31;102125.19;;;12.46;61.09
70248;BME280;57641;51.416;5.506;2023-03-20T10:20:45;102115.59;;;12.13;61.75
70248;BME280;57641;51.416;5.506;2023-03-20T10:26:11;102109.38;;;12.12;62.80
70248;BME280;57641;51.416;5.506;2023-03-20T10:37:16;102108.38;;;12.34;63.72
70248;BME280;57641;51.416;5.506;2023-03-20T10:42:29;102099.16;;;12.17;63.43
70248;BME280;57641;51.416;5.506;2023-03-20T10:45:01;102100.47;;;12.33;62.92
70248;BME280;57641;51.416;5.506;2023-03-20T10:47:34;102089.50;;;12.26;63.02
70248;BME280;57641;51.416;5.506;2023-03-20T10:50:10;102090.00;;;12.50;63.21
70248;BME280;57641;51.416;5.506;2023-03-20T10:52:43;102094.13;;;12.64;62.30
70248;BME280;57641;51.416;5.506;2023-03-20T10:55:14;102089.34;;;12.58;62.55
70248;BME280;57641;51.416;5.506;2023-03-20T10:57:46;102088.41;;;12.78;62.33
70248;BME280;57641;51.416;5.506;2023-03-20T11:00:19;102089.97;;;12.90;61.33
70248;BME280;57641;51.416;5.506;2023-03-20T11:02:45;102088.72;;;12.94;61.97
70248;BME280;57641;51.416;5.506;2023-03-20T11:05:35;102086.03;;;12.85;61.46
70248;BME280;57641;51.416;5.506;2023-03-20T11:08:07;102102.78;;;12.87;62.08
70248;BME280;57641;51.416;5.506;2023-03-20T11:10:36;102103.44;;;12.69;61.16
70248;BME280;57641;51.416;5.506;2023-03-20T11:13:24;102097.13;;;12.80;61.89
70248;BME280;57641;51.416;5.506;2023-03-20T11:15:51;102088.41;;;12.88;62.32
70248;BME280;57641;51.416;5.506;2023-03-20T11:18:17;102097.97;;;12.81;61.19
70248;BME280;57641;51.416;5.506;2023-03-20T11:20:46;102086.16;;;12.74;60.65
70248;BME280;57641;51.416;5.506;2023-03-20T11:23:16;102077.59;;;12.89;61.49
70248;BME280;57641;51.416;5.506;2023-03-20T11:28:40;102080.69;;;12.85;61.24
70248;BME280;57641;51.416;5.506;2023-03-20T11:36:29;102060.81;;;12.97;62.96
70248;BME280;57641;51.416;5.506;2023-03-20T11:39:14;102053.50;;;12.99;61.71
70248;BME280;57641;51.416;5.506;2023-03-20T11:41:52;102038.88;;;13.13;61.56
70248;BME280;57641;51.416;5.506;2023-03-20T11:44:22;102047.19;;;13.19;61.65
70248;BME280;57641;51.416;5.506;2023-03-20T11:46:56;102049.72;;;13.30;61.98
70248;BME280;57641;51.416;5.506;2023-03-20T11:49:25;102056.22;;;13.37;61.23
70248;BME280;57641;51.416;5.506;2023-03-20T11:51:58;102046.19;;;13.10;60.52
70248;BME280;57641;51.416;5.506;2023-03-20T11:54:26;102043.09;;;13.25;60.24
70248;BME280;57641;51.416;5.506;2023-03-20T11:56:57;102042.94;;;13.17;60.62
70248;BME280;57641;51.416;5.506;2023-03-20T11:59:36;102040.28;;;13.17;60.43
70248;BME280;57641;51.416;5.506;2023-03-20T12:02:03;102045.22;;;13.31;60.69
70248;BME280;57641;51.416;5.506;2023-03-20T12:04:41;102041.84;;;13.48;60.94
70248;BME280;57641;51.416;5.506;2023-03-20T12:07:18;102033.50;;;13.51;59.14
70248;BME280;57641;51.416;5.506;2023-03-20T12:09:56;102041.25;;;13.35;59.41
70248;BME280;57641;51.416;5.506;2023-03-20T12:12:46;102041.41;;;13.33;59.20
70248;BME280;57641;51.416;5.506;2023-03-20T12:17:54;102046.59;;;13.44;59.98
70248;BME280;57641;51.416;5.506;2023-03-20T12:25:48;102035.03;;;13.44;59.27
70248;BME280;57641;51.416;5.506;2023-03-20T12:31:45;102034.19;;;13.43;60.00
70248;BME280;57641;51.416;5.506;2023-03-20T12:36:45;102020.06;;;13.61;60.26
70248;BME280;57641;51.416;5.506;2023-03-20T12:39:17;102015.84;;;13.68;60.67
70248;BME280;57641;51.416;5.506;2023-03-20T12:44:54;102023.09;;;13.48;59.30
70248;BME280;57641;51.416;5.506;2023-03-20T12:47:28;102015.03;;;13.48;59.92
70248;BME280;57641;51.416;5.506;2023-03-20T13:01:19;101990.75;;;13.49;59.94
70248;BME280;57641;51.416;5.506;2023-03-20T13:04:09;101988.06;;;13.59;59.20
70248;BME280;57641;51.416;5.506;2023-03-20T13:06:54;101990.50;;;13.33;58.75
70248;BME280;57641;51.416;5.506;2023-03-20T13:09:48;101986.97;;;13.52;59.34
70248;BME280;57641;51.416;5.506;2023-03-20T13:17:49;101990.91;;;13.38;58.13
70248;BME280;57641;51.416;5.506;2023-03-20T13:23:07;101987.78;;;13.62;58.72
70248;BME280;57641;51.416;5.506;2023-03-20T13:36:06;101973.91;;;13.76;56.18
70248;BME280;57641;51.416;5.506;2023-03-20T13:38:36;101973.88;;;13.86;56.77
70248;BME280;57641;51.416;5.506;2023-03-20T13:41:06;101973.44;;;13.90;55.08
70248;BME280;57641;51.416;5.506;2023-03-20T13:46:08;101957.16;;;13.74;55.95
70248;BME280;57641;51.416;5.506;2023-03-20T13:48:39;101945.81;;;14.08;56.57
70248;BME280;57641;51.416;5.506;2023-03-20T13:56:47;101946.28;;;14.03;56.24
70248;BME280;57641;51.416;5.506;2023-03-20T14:04:33;101943.31;;;14.06;55.45
70248;BME280;57641;51.416;5.506;2023-03-20T14:06:59;101952.16;;;14.16;54.78
70248;BME280;57641;51.416;5.506;2023-03-20T14:09:46;101948.94;;;14.30;54.63
70248;BME280;57641;51.416;5.506;2023-03-20T14:12:12;101945.78;;;14.45;54.18
70248;BME280;57641;51.416;5.506;2023-03-20T14:14:42;101946.88;;;14.52;53.49
70248;BME280;57641;51.416;5.506;2023-03-20T14:19:41;101937.97;;;14.51;52.79
70248;BME280;57641;51.416;5.506;2023-03-20T14:22:25;101940.66;;;14.51;53.77
70248;BME280;57641;51.416;5.506;2023-03-20T14:24:59;101930.94;;;14.68;54.19
70248;BME280;57641;51.416;5.506;2023-03-20T14:27:35;101932.63;;;14.69;53.70
70248;BME280;57641;51.416;5.506;2023-03-20T14:35:35;101925.16;;;14.63;55.12
70248;BME280;57641;51.416;5.506;2023-03-20T14:40:52;101919.41;;;14.58;54.82
70248;BME280;57641;51.416;5.506;2023-03-20T14:43:39;101918.50;;;14.67;54.92
70248;BME280;57641;51.416;5.506;2023-03-20T14:49:42;101914.97;;;14.49;56.02
70248;BME280;57641;51.416;5.506;2023-03-20T14:52:37;101915.78;;;14.49;55.65
70248;BME280;57641;51.416;5.506;2023-03-20T14:57:46;101913.06;;;14.59;55.71
70248;BME280;57641;51.416;5.506;2023-03-20T15:00:20;101904.31;;;14.57;54.49
70248;BME280;57641;51.416;5.506;2023-03-20T15:03:04;101897.34;;;14.64;54.39
70248;BME280;57641;51.416;5.506;2023-03-20T15:05:33;101898.19;;;14.64;54.27
70248;BME280;57641;51.416;5.506;2023-03-20T15:10:47;101893.19;;;14.69;52.91
70248;BME280;57641;51.416;5.506;2023-03-20T15:13:15;101894.00;;;14.70;53.61
70248;BME280;57641;51.416;5.506;2023-03-20T15:16:05;101898.47;;;14.44;53.02
70248;BME280;57641;51.416;5.506;2023-03-20T15:18:37;101896.50;;;14.18;53.25
70248;BME280;57641;51.416;5.506;2023-03-20T15:21:03;101890.59;;;14.42;52.54
70248;BME280;57641;51.416;5.506;2023-03-20T15:23:28;101890.22;;;14.37;51.86
70248;BME280;57641;51.416;5.506;2023-03-20T15:25:54;101882.94;;;14.47;52.17
70248;BME280;57641;51.416;5.506;2023-03-20T15:28:25;101888.16;;;14.49;52.35
70248;BME280;57641;51.416;5.506;2023-03-20T15:30:55;101890.38;;;14.53;52.42
70248;BME280;57641;51.416;5.506;2023-03-20T15:33:33;101893.63;;;14.65;52.11